sensor_id;sensor_type;location;lat;lon;timestamp;pressure;altitude;pressure_sealevel;temperature;humidity
11041;BME280;5573;49.592;8.662;2023-04-04T00:02:25;100880.38;;;1.93;60.98
11041;BME280;5573;49.592;8.662;2023-04-04T00:04:53;100881.44;;;1.92;61.41
11041;BME280;5573;49.592;8.662;2023-04-04T00:07:22;100868.41;;;1.61;60.51
11041;BME280;5573;49.592;8.662;2023-04-04T00:09:49;100869.16;;;1.80;60.17
11041;BME280;5573;49.592;8.662;2023-04-04T00:12:17;100867.88;;;1.92;60.14
11041;BME280;5573;49.592;8.662;2023-04-04T00:14:45;100869.69;;;1.82;61.17
11041;BME280;5573;49.592;8.662;2023-04-04T00:17:12;100857.91;;;1.73;61.26
11041;BME280;5573;49.592;8.662;2023-04-04T00:19:40;100854.06;;;1.74;61.50
11041;BME280;5573;49.592;8.662;2023-04-04T00:22:09;100875.38;;;1.81;61.86
11041;BME280;5573;49.592;8.662;2023-04-04T00:24:38;100858.13;;;1.58;62.12
11041;BME280;5573;49.592;8.662;2023-04-04T00:27:06;100863.72;;;1.67;60.92
11041;BME280;5573;49.592;8.662;2023-04-04T00:29:33;100854.34;;;1.73;60.45
11041;BME280;5573;49.592;8.662;2023-04-04T00:32:02;100854.16;;;1.69;60.77
11041;BME280;5573;49.592;8.662;2023-04-04T00:34:30;100850.84;;;1.72;59.99
11041;BME280;5573;49.592;8.662;2023-04-04T00:36:58;100843.66;;;1.81;60.71
11041;BME280;5573;49.592;8.662;2023-04-04T00:39:26;100844.41;;;1.68;61.47
11041;BME280;5573;49.592;8.662;2023-04-04T00:41:55;100845.41;;;1.72;60.26
11041;BME280;5573;49.592;8.662;2023-04-04T00:44:23;100838.69;;;1.70;60.45
11041;BME280;5573;49.592;8.662;2023-04-04T00:46:51;100840.91;;;1.68;60.92
11041;BME280;5573;49.592;8.662;2023-04-04T00:49:19;100838.19;;;1.68;61.28
11041;BME280;5573;49.592;8.662;2023-04-04T00:51:47;100837.28;;;1.72;61.86
11041;BME280;5573;49.592;8.662;2023-04-04T00:54:15;100839.22;;;1.53;62.19
11041;BME280;5573;49.592;8.662;2023-04-04T00:56:43;100832.53;;;1.64;61.03
11041;BME280;5573;49.592;8.662;2023-04-04T00:59:12;100836.13;;;1.59;62.07
11041;BME280;5573;49.592;8.662;2023-04-04T01:01:41;100828.03;;;1.40;63.08
11041;BME280;5573;49.592;8.662;2023-04-04T01:04:09;100836.63;;;1.48;63.30
11041;BME280;5573;49.592;8.662;2023-04-04T01:06:37;100828.59;;;1.56;62.22
11041;BME280;5573;49.592;8.662;2023-04-04T01:09:04;100826.19;;;1.55;63.62
11041;BME280;5573;49.592;8.662;2023-04-04T01:11:32;100830.75;;;1.40;61.55
11041;BME280;5573;49.592;8.662;2023-04-04T01:14:02;100740.31;;;0.98;61.46
11041;BME280;5573;49.592;8.662;2023-04-04T01:16:31;100818.00;;;1.41;62.90
11041;BME280;5573;49.592;8.662;2023-04-04T01:19:01;100838.72;;;1.51;62.55
11041;BME280;5573;49.592;8.662;2023-04-04T01:21:31;100835.22;;;1.31;64.48
11041;BME280;5573;49.592;8.662;2023-04-04T01:23:59;100830.38;;;1.28;63.30
11041;BME280;5573;49.592;8.662;2023-04-04T01:26:37;100831.50;;;1.27;63.15
11041;BME280;5573;49.592;8.662;2023-04-04T01:29:05;100823.91;;;1.43;64.48
11041;BME280;5573;49.592;8.662;2023-04-04T01:31:38;100828.50;;;1.29;63.64
11041;BME280;5573;49.592;8.662;2023-04-04T01:34:11;100821.00;;;1.39;62.85
11041;BME280;5573;49.592;8.662;2023-04-04T01:36:46;100825.97;;;1.32;64.23
11041;BME280;5573;49.592;8.662;2023-04-04T01:39:21;100815.88;;;1.38;63.94
11041;BME280;5573;49.592;8.662;2023-04-04T01:41:53;100811.03;;;1.16;63.31
11041;BME280;5573;49.592;8.662;2023-04-04T01:44:23;100813.91;;;1.25;63.80
11041;BME280;5573;49.592;8.662;2023-04-04T01:46:52;100821.06;;;1.34;64.50
11041;BME280;5573;49.592;8.662;2023-04-04T01:49:21;100814.13;;;1.28;63.25
11041;BME280;5573;49.592;8.662;2023-04-04T01:51:50;100812.91;;;1.20;63.90
11041;BME280;5573;49.592;8.662;2023-04-04T01:54:20;100816.69;;;1.19;62.27
11041;BME280;5573;49.592;8.662;2023-04-04T01:56:48;100818.88;;;1.36;62.98
11041;BME280;5573;49.592;8.662;2023-04-04T01:59:17;100806.66;;;1.20;62.71
11041;BME280;5573;49.592;8.662;2023-04-04T02:01:45;100807.25;;;1.17;63.07
11041;BME280;5573;49.592;8.662;2023-04-04T02:04:12;100797.50;;;1.16;63.54
11041;BME280;5573;49.592;8.662;2023-04-04T02:06:40;100808.28;;;1.21;63.28
11041;BME280;5573;49.592;8.662;2023-04-04T02:09:08;100807.03;;;1.13;63.95
11041;BME280;5573;49.592;8.662;2023-04-04T02:11:35;100808.94;;;1.13;63.74
11041;BME280;5573;49.592;8.662;2023-04-04T02:14:04;100811.88;;;1.16;64.66
11041;BME280;5573;49.592;8.662;2023-04-04T02:16:33;100818.31;;;1.01;64.81
11041;BME280;5573;49.592;8.662;2023-04-04T02:19:01;100819.91;;;1.02;65.41
11041;BME280;5573;49.592;8.662;2023-04-04T02:21:34;100812.97;;;0.96;64.83
11041;BME280;5573;49.592;8.662;2023-04-04T02:24:02;100815.16;;;0.94;64.05
11041;BME280;5573;49.592;8.662;2023-04-04T02:26:29;100810.19;;;1.01;63.47
11041;BME280;5573;49.592;8.662;2023-04-04T02:28:57;100812.06;;;1.01;63.64
11041;BME280;5573;49.592;8.662;2023-04-04T02:31:25;100812.06;;;1.01;63.16
11041;BME280;5573;49.592;8.662;2023-04-04T02:33:54;100814.06;;;0.95;64.38
11041;BME280;5573;49.592;8.662;2023-04-04T02:36:23;100814.50;;;1.02;63.51
11041;BME280;5573;49.592;8.662;2023-04-04T02:38:53;100813.41;;;1.04;63.08
11041;BME280;5573;49.592;8.662;2023-04-04T02:41:24;100818.31;;;1.01;63.10
11041;BME280;5573;49.592;8.662;2023-04-04T02:43:52;100805.94;;;0.95;62.18
11041;BME280;5573;49.592;8.662;2023-04-04T02:46:19;100820.19;;;1.01;62.43
11041;BME280;5573;49.592;8.662;2023-04-04T02:48:55;100815.94;;;0.95;62.78
11041;BME280;5573;49.592;8.662;2023-04-04T02:51:23;100809.38;;;1.01;62.56
11041;BME280;5573;49.592;8.662;2023-04-04T02:53:51;100813.84;;;0.92;62.54
11041;BME280;5573;49.592;8.662;2023-04-04T02:56:24;100820.34;;;0.72;62.82
11041;BME280;5573;49.592;8.662;2023-04-04T02:58:52;100814.88;;;0.96;63.47
11041;BME280;5573;49.592;8.662;2023-04-04T03:01:20;100814.63;;;0.73;63.27
11041;BME280;5573;49.592;8.662;2023-04-04T03:03:47;100819.03;;;0.88;62.04
11041;BME280;5573;49.592;8.662;2023-04-04T03:06:17;100810.03;;;0.74;63.29
11041;BME280;5573;49.592;8.662;2023-04-04T03:08:47;100808.50;;;0.87;63.08
11041;BME280;5573;49.592;8.662;2023-04-04T03:11:16;100810.75;;;0.79;62.86
11041;BME280;5573;49.592;8.662;2023-04-04T03:13:44;100804.44;;;0.84;63.31
11041;BME280;5573;49.592;8.662;2023-04-04T03:16:12;100805.41;;;0.74;64.41
11041;BME280;5573;49.592;8.662;2023-04-04T03:18:47;100812.66;;;0.79;65.15
11041;BME280;5573;49.592;8.662;2023-04-04T03:21:19;100811.03;;;0.78;65.68
11041;BME280;5573;49.592;8.662;2023-04-04T03:23:47;100813.16;;;0.62;65.37
11041;BME280;5573;49.592;8.662;2023-04-04T03:26:15;100813.66;;;0.64;65.15
11041;BME280;5573;49.592;8.662;2023-04-04T03:28:43;100806.84;;;0.67;64.67
11041;BME280;5573;49.592;8.662;2023-04-04T03:31:12;100811.19;;;0.68;65.17
11041;BME280;5573;49.592;8.662;2023-04-04T03:33:41;100809.31;;;0.63;65.43
11041;BME280;5573;49.592;8.662;2023-04-04T03:36:09;100808.53;;;0.63;65.45
11041;BME280;5573;49.592;8.662;2023-04-04T03:38:39;100798.56;;;0.58;65.36
11041;BME280;5573;49.592;8.662;2023-04-04T03:41:09;100810.19;;;0.58;65.41
11041;BME280;5573;49.592;8.662;2023-04-04T03:43:36;100808.25;;;0.64;67.31
11041;BME280;5573;49.592;8.662;2023-04-04T03:46:05;100800.59;;;0.47;66.25
11041;BME280;5573;49.592;8.662;2023-04-04T03:48:33;100795.28;;;0.61;67.72
11041;BME280;5573;49.592;8.662;2023-04-04T03:51:04;100796.28;;;0.46;69.28
11041;BME280;5573;49.592;8.662;2023-04-04T03:53:33;100802.78;;;0.45;69.44
11041;BME280;5573;49.592;8.662;2023-04-04T03:56:03;100797.44;;;0.40;68.10
11041;BME280;5573;49.592;8.662;2023-04-04T03:58:34;100794.91;;;0.49;67.79
11041;BME280;5573;49.592;8.662;2023-04-04T04:01:02;100795.25;;;0.42;67.45
11041;BME280;5573;49.592;8.662;2023-04-04T04:03:30;100793.63;;;0.41;67.11
11041;BME280;5573;49.592;8.662;2023-04-04T04:05:58;100800.88;;;0.46;69.74
11041;BME280;5573;49.592;8.662;2023-04-04T04:08:26;100798.38;;;0.30;68.66
11041;BME280;5573;49.592;8.662;2023-04-04T04:10:54;100794.91;;;0.49;67.85
11041;BME280;5573;49.592;8.662;2023-04-04T04:13:23;100795.53;;;0.40;68.29
11041;BME280;5573;49.592;8.662;2023-04-04T04:15:53;100801.31;;;0.34;67.92
11041;BME280;5573;49.592;8.662;2023-04-04T04:18:22;100796.06;;;0.43;68.52
11041;BME280;5573;49.592;8.662;2023-04-04T04:20:55;100795.53;;;0.40;68.65
11041;BME280;5573;49.592;8.662;2023-04-04T04:23:24;100796.69;;;0.34;69.12
11041;BME280;5573;49.592;8.662;2023-04-04T04:25:52;100794.03;;;0.29;68.58
11041;BME280;5573;49.592;8.662;2023-04-04T04:28:23;100798.09;;;0.32;68.37
11041;BME280;5573;49.592;8.662;2023-04-04T04:31:04;100798.13;;;0.27;68.08
11041;BME280;5573;49.592;8.662;2023-04-04T04:33:38;100801.00;;;0.35;71.81
11041;BME280;5573;49.592;8.662;2023-04-04T04:36:06;100802.13;;;0.34;68.81
11041;BME280;5573;49.592;8.662;2023-04-04T04:39:12;100804.66;;;0.26;68.72
11041;BME280;5573;49.592;8.662;2023-04-04T04:41:53;100803.50;;;0.32;69.25
11041;BME280;5573;49.592;8.662;2023-04-04T04:44:24;100803.94;;;0.39;68.15
11041;BME280;5573;49.592;8.662;2023-04-04T04:46:54;100803.94;;;0.39;69.02
11041;BME280;5573;49.592;8.662;2023-04-04T04:49:22;100799.13;;;0.36;69.40
11041;BME280;5573;49.592;8.662;2023-04-04T04:51:51;100807.34;;;0.26;72.13
11041;BME280;5573;49.592;8.662;2023-04-04T04:54:20;100804.13;;;0.24;70.49
11041;BME280;5573;49.592;8.662;2023-04-04T04:56:52;100803.38;;;0.18;70.95
11041;BME280;5573;49.592;8.662;2023-04-04T04:59:21;100808.19;;;0.21;71.13
11041;BME280;5573;49.592;8.662;2023-04-04T05:01:50;100800.03;;;0.26;70.90
11041;BME280;5573;49.592;8.662;2023-04-04T05:04:19;100802.50;;;0.23;70.03
11041;BME280;5573;49.592;8.662;2023-04-04T05:06:57;100809.03;;;0.22;70.20
11041;BME280;5573;49.592;8.662;2023-04-04T05:09:26;100773.47;;;0.04;67.70
11041;BME280;5573;49.592;8.662;2023-04-04T05:11:54;100817.56;;;0.34;68.69
11041;BME280;5573;49.592;8.662;2023-04-04T05:14:28;100820.38;;;0.24;69.25
11041;BME280;5573;49.592;8.662;2023-04-04T05:16:58;100814.59;;;0.30;68.88
11041;BME280;5573;49.592;8.662;2023-04-04T05:19:29;100821.06;;;0.34;69.82
11041;BME280;5573;49.592;8.662;2023-04-04T05:21:58;100817.47;;;0.39;69.05
11041;BME280;5573;49.592;8.662;2023-04-04T05:24:31;100818.63;;;0.33;68.63
11041;BME280;5573;49.592;8.662;2023-04-04T05:27:00;100816.97;;;0.37;68.67
11041;BME280;5573;49.592;8.662;2023-04-04T05:29:35;100826.34;;;0.45;70.00
11041;BME280;5573;49.592;8.662;2023-04-04T05:32:04;100833.19;;;0.37;70.66
11041;BME280;5573;49.592;8.662;2023-04-04T05:34:34;100825.59;;;0.39;69.09
11041;BME280;5573;49.592;8.662;2023-04-04T05:37:05;100817.75;;;0.37;69.52
11041;BME280;5573;49.592;8.662;2023-04-04T05:39:34;100819.56;;;0.47;67.18
11041;BME280;5573;49.592;8.662;2023-04-04T05:42:06;100827.72;;;0.42;67.44
11041;BME280;5573;49.592;8.662;2023-04-04T05:44:38;100826.00;;;0.51;67.01
11041;BME280;5573;49.592;8.662;2023-04-04T05:47:10;100818.44;;;0.48;67.35
11041;BME280;5573;49.592;8.662;2023-04-04T05:49:41;100829.50;;;0.52;67.97
11041;BME280;5573;49.592;8.662;2023-04-04T05:52:09;100831.34;;;0.56;67.05
11041;BME280;5573;49.592;8.662;2023-04-04T05:54:38;100825.38;;;0.59;67.09
11041;BME280;5573;49.592;8.662;2023-04-04T05:57:11;100830.06;;;0.73;67.28
11041;BME280;5573;49.592;8.662;2023-04-04T05:59:47;100835.59;;;0.87;66.11
11041;BME280;5573;49.592;8.662;2023-04-04T06:02:17;100835.28;;;0.88;63.88
11041;BME280;5573;49.592;8.662;2023-04-04T06:04:50;100834.25;;;1.03;64.84
11041;BME280;5573;49.592;8.662;2023-04-04T06:07:26;100833.97;;;1.05;65.37
11041;BME280;5573;49.592;8.662;2023-04-04T06:09:54;100821.97;;;1.11;64.24
11041;BME280;5573;49.592;8.662;2023-04-04T06:12:22;100834.44;;;1.12;63.34
11041;BME280;5573;49.592;8.662;2023-04-04T06:14:49;100833.41;;;1.27;63.29
11041;BME280;5573;49.592;8.662;2023-04-04T06:17:21;100840.06;;;1.34;62.48
11041;BME280;5573;49.592;8.662;2023-04-04T06:19:51;100845.31;;;1.45;61.52
11041;BME280;5573;49.592;8.662;2023-04-04T06:22:21;100839.22;;;1.53;61.90
11041;BME280;5573;49.592;8.662;2023-04-04T06:24:51;100845.00;;;1.65;61.72
11041;BME280;5573;49.592;8.662;2023-04-04T06:27:19;100846.22;;;1.73;60.93
11041;BME280;5573;49.592;8.662;2023-04-04T06:29:47;100844.69;;;1.86;59.70
11041;BME280;5573;49.592;8.662;2023-04-04T06:32:18;100855.13;;;1.92;59.31
11041;BME280;5573;49.592;8.662;2023-04-04T06:34:49;100853.75;;;2.09;59.14
11041;BME280;5573;49.592;8.662;2023-04-04T06:37:26;100854.69;;;2.18;58.69
11041;BME280;5573;49.592;8.662;2023-04-04T06:40:03;100848.47;;;2.31;59.01
11041;BME280;5573;49.592;8.662;2023-04-04T06:42:31;100855.41;;;2.51;57.83
11041;BME280;5573;49.592;8.662;2023-04-04T06:45:02;100858.84;;;2.71;57.69
11041;BME280;5573;49.592;8.662;2023-04-04T06:47:31;100866.47;;;2.69;56.72
11041;BME280;5573;49.592;8.662;2023-04-04T06:50:02;100860.22;;;2.96;56.14
11041;BME280;5573;49.592;8.662;2023-04-04T06:52:31;100867.78;;;2.85;55.52
11041;BME280;5573;49.592;8.662;2023-04-04T06:54:58;100866.88;;;2.90;55.51
11041;BME280;5573;49.592;8.662;2023-04-04T06:57:26;100858.00;;;2.98;55.43
11041;BME280;5573;49.592;8.662;2023-04-04T06:59:54;100848.72;;;2.99;56.03
11041;BME280;5573;49.592;8.662;2023-04-04T07:02:22;100861.25;;;3.22;56.12
11041;BME280;5573;49.592;8.662;2023-04-04T07:04:50;100861.16;;;3.28;55.39
11041;BME280;5573;49.592;8.662;2023-04-04T07:07:19;100832.34;;;3.26;55.43
11041;BME280;5573;49.592;8.662;2023-04-04T07:09:47;100872.22;;;3.31;54.88
11041;BME280;5573;49.592;8.662;2023-04-04T07:12:15;100864.72;;;3.14;54.59
11041;BME280;5573;49.592;8.662;2023-04-04T07:14:43;100861.53;;;3.35;55.20
11041;BME280;5573;49.592;8.662;2023-04-04T07:17:10;100861.56;;;3.57;54.30
11041;BME280;5573;49.592;8.662;2023-04-04T07:19:50;100865.13;;;3.44;54.59
11041;BME280;5573;49.592;8.662;2023-04-04T07:22:19;100869.47;;;3.90;53.91
11041;BME280;5573;49.592;8.662;2023-04-04T07:24:47;100865.31;;;3.93;53.90
11041;BME280;5573;49.592;8.662;2023-04-04T07:27:15;100864.63;;;4.10;53.10
11041;BME280;5573;49.592;8.662;2023-04-04T07:29:42;100867.69;;;4.17;53.00
11041;BME280;5573;49.592;8.662;2023-04-04T07:32:10;100863.38;;;4.47;53.16
11041;BME280;5573;49.592;8.662;2023-04-04T07:34:38;100863.31;;;4.38;51.47
11041;BME280;5573;49.592;8.662;2023-04-04T07:37:05;100857.38;;;4.36;50.68
11041;BME280;5573;49.592;8.662;2023-04-04T07:39:35;100856.16;;;4.11;49.93
11041;BME280;5573;49.592;8.662;2023-04-04T07:42:03;100855.25;;;4.24;50.75
11041;BME280;5573;49.592;8.662;2023-04-04T07:44:30;100859.22;;;4.50;50.57
11041;BME280;5573;49.592;8.662;2023-04-04T07:46:58;100855.38;;;4.59;49.26
11041;BME280;5573;49.592;8.662;2023-04-04T07:49:35;100861.28;;;4.53;49.80
11041;BME280;5573;49.592;8.662;2023-04-04T07:52:03;100854.81;;;4.88;49.17
11041;BME280;5573;49.592;8.662;2023-04-04T07:54:31;100857.25;;;5.07;48.48
11041;BME280;5573;49.592;8.662;2023-04-04T07:57:00;100849.75;;;5.30;48.12
11041;BME280;5573;49.592;8.662;2023-04-04T07:59:31;100848.09;;;5.03;48.07
11041;BME280;5573;49.592;8.662;2023-04-04T08:01:58;100856.00;;;5.48;47.33
11041;BME280;5573;49.592;8.662;2023-04-04T08:04:26;100841.88;;;5.55;46.53
11041;BME280;5573;49.592;8.662;2023-04-04T08:06:54;100852.78;;;5.64;46.89
11041;BME280;5573;49.592;8.662;2023-04-04T08:09:21;100847.63;;;5.97;47.44
11041;BME280;5573;49.592;8.662;2023-04-04T08:11:50;100848.75;;;5.96;46.89
11041;BME280;5573;49.592;8.662;2023-04-04T08:14:19;100848.91;;;5.82;46.06
11041;BME280;5573;49.592;8.662;2023-04-04T08:16:47;100840.09;;;5.68;45.60
11041;BME280;5573;49.592;8.662;2023-04-04T08:19:15;100850.09;;;5.38;44.46
11041;BME280;5573;49.592;8.662;2023-04-04T08:21:43;100844.78;;;5.59;43.50
11041;BME280;5573;49.592;8.662;2023-04-04T08:24:10;100853.13;;;5.45;43.94
11041;BME280;5573;49.592;8.662;2023-04-04T08:26:38;100841.03;;;5.89;44.78
11041;BME280;5573;49.592;8.662;2023-04-04T08:29:07;100847.16;;;5.86;44.45
11041;BME280;5573;49.592;8.662;2023-04-04T08:31:36;100843.81;;;5.63;43.94
11041;BME280;5573;49.592;8.662;2023-04-04T08:34:06;100845.09;;;5.57;44.01
11041;BME280;5573;49.592;8.662;2023-04-04T08:36:34;100856.00;;;5.48;44.13
11041;BME280;5573;49.592;8.662;2023-04-04T08:39:02;100841.06;;;5.72;44.36
11041;BME280;5573;49.592;8.662;2023-04-04T08:41:30;100837.66;;;5.84;42.34
11041;BME280;5573;49.592;8.662;2023-04-04T08:44:01;100851.81;;;6.03;43.73
11041;BME280;5573;49.592;8.662;2023-04-04T08:46:31;100847.56;;;6.15;44.04
11041;BME280;5573;49.592;8.662;2023-04-04T08:49:01;100847.09;;;6.51;42.71
11041;BME280;5573;49.592;8.662;2023-04-04T08:51:31;100833.50;;;6.42;43.32
11041;BME280;5573;49.592;8.662;2023-04-04T08:54:01;100841.00;;;6.54;43.29
11041;BME280;5573;49.592;8.662;2023-04-04T08:56:29;100839.84;;;6.55;42.19
11041;BME280;5573;49.592;8.662;2023-04-04T08:58:57;100837.06;;;6.34;41.99
11041;BME280;5573;49.592;8.662;2023-04-04T09:01:26;100798.91;;;6.46;43.10
11041;BME280;5573;49.592;8.662;2023-04-04T09:03:55;100830.81;;;6.63;41.63
11041;BME280;5573;49.592;8.662;2023-04-04T09:06:24;100839.38;;;6.53;41.52
11041;BME280;5573;49.592;8.662;2023-04-04T09:08:53;100843.13;;;6.78;43.62
11041;BME280;5573;49.592;8.662;2023-04-04T09:11:23;100840.88;;;7.01;42.81
11041;BME280;5573;49.592;8.662;2023-04-04T09:13:53;100839.97;;;7.18;41.16
11041;BME280;5573;49.592;8.662;2023-04-04T09:16:22;100836.09;;;7.19;41.31
11041;BME280;5573;49.592;8.662;2023-04-04T09:18:50;100834.09;;;7.28;40.83
11041;BME280;5573;49.592;8.662;2023-04-04T09:21:19;100828.94;;;7.27;40.19
11041;BME280;5573;49.592;8.662;2023-04-04T09:23:57;100839.41;;;7.25;40.27
11041;BME280;5573;49.592;8.662;2023-04-04T09:26:24;100832.75;;;6.92;40.10
11041;BME280;5573;49.592;8.662;2023-04-04T09:28:52;100824.31;;;6.98;41.21
11041;BME280;5573;49.592;8.662;2023-04-04T09:31:20;100835.31;;;6.89;42.42
11041;BME280;5573;49.592;8.662;2023-04-04T09:33:48;100835.69;;;6.49;41.70
11041;BME280;5573;49.592;8.662;2023-04-04T09:36:16;100829.75;;;6.77;41.79
11041;BME280;5573;49.592;8.662;2023-04-04T09:38:44;100819.00;;;7.01;38.79
11041;BME280;5573;49.592;8.662;2023-04-04T09:41:16;100833.47;;;7.02;40.80
11041;BME280;5573;49.592;8.662;2023-04-04T09:43:46;100825.47;;;7.18;41.45
11041;BME280;5573;49.592;8.662;2023-04-04T09:46:17;100833.69;;;7.18;41.99
11041;BME280;5573;49.592;8.662;2023-04-04T09:48:48;100825.66;;;7.12;41.27
11041;BME280;5573;49.592;8.662;2023-04-04T09:51:16;100827.91;;;7.52;40.19
11041;BME280;5573;49.592;8.662;2023-04-04T09:53:46;100820.94;;;7.43;41.79
11041;BME280;5573;49.592;8.662;2023-04-04T09:56:16;100824.91;;;7.66;42.04
11041;BME280;5573;49.592;8.662;2023-04-04T09:58:46;100827.38;;;7.92;40.97
11041;BME280;5573;49.592;8.662;2023-04-04T10:01:29;100836.69;;;7.79;40.30
11041;BME280;5573;49.592;8.662;2023-04-04T10:03:57;100825.97;;;7.74;39.36
11041;BME280;5573;49.592;8.662;2023-04-04T10:06:25;100810.00;;;7.76;38.84
11041;BME280;5573;49.592;8.662;2023-04-04T10:08:55;100830.47;;;7.91;39.82
11041;BME280;5573;49.592;8.662;2023-04-04T10:11:29;100825.06;;;8.40;41.16
11041;BME280;5573;49.592;8.662;2023-04-04T10:13:58;100829.63;;;8.36;40.20
11041;BME280;5573;49.592;8.662;2023-04-04T10:16:26;100827.88;;;8.19;40.71
11041;BME280;5573;49.592;8.662;2023-04-04T10:18:53;100825.53;;;7.84;40.22
11041;BME280;5573;49.592;8.662;2023-04-04T10:21:21;100823.34;;;7.78;41.25
11041;BME280;5573;49.592;8.662;2023-04-04T10:23:50;100820.16;;;7.88;40.35
11041;BME280;5573;49.592;8.662;2023-04-04T10:26:19;100812.91;;;8.04;40.49
11041;BME280;5573;49.592;8.662;2023-04-04T10:29:11;100827.22;;;7.77;40.26
11041;BME280;5573;49.592;8.662;2023-04-04T10:31:42;100825.72;;;8.25;40.83
11041;BME280;5573;49.592;8.662;2023-04-04T10:34:24;100828.97;;;8.64;41.15
11041;BME280;5573;49.592;8.662;2023-04-04T10:37:01;100826.34;;;8.43;40.23
11041;BME280;5573;49.592;8.662;2023-04-04T10:39:32;100777.31;;;8.17;42.89
11041;BME280;5573;49.592;8.662;2023-04-04T10:42:04;100821.09;;;8.50;37.57
11041;BME280;5573;49.592;8.662;2023-04-04T10:44:37;100820.75;;;8.76;37.80
11041;BME280;5573;49.592;8.662;2023-04-04T10:47:12;100804.41;;;8.67;38.59
11041;BME280;5573;49.592;8.662;2023-04-04T10:49:42;100810.00;;;8.71;41.95
11041;BME280;5573;49.592;8.662;2023-04-04T10:52:12;100811.03;;;8.54;41.26
11041;BME280;5573;49.592;8.662;2023-04-04T10:54:41;100805.06;;;8.64;40.39
11041;BME280;5573;49.592;8.662;2023-04-04T10:57:11;100807.34;;;8.87;40.92
11041;BME280;5573;49.592;8.662;2023-04-04T10:59:56;100802.66;;;8.87;40.67
11041;BME280;5573;49.592;8.662;2023-04-04T11:02:42;100797.22;;;9.15;40.14
11041;BME280;5573;49.592;8.662;2023-04-04T11:05:11;100793.41;;;8.80;38.33
11041;BME280;5573;49.592;8.662;2023-04-04T11:07:39;100782.03;;;9.06;38.67
11041;BME280;5573;49.592;8.662;2023-04-04T11:10:13;100789.66;;;9.12;40.29
11041;BME280;5573;49.592;8.662;2023-04-04T11:12:42;100784.44;;;9.07;38.61
11041;BME280;5573;49.592;8.662;2023-04-04T11:15:13;100787.03;;;9.44;41.14
11041;BME280;5573;49.592;8.662;2023-04-04T11:18:04;100784.38;;;9.32;39.96
11041;BME280;5573;49.592;8.662;2023-04-04T11:20:53;100780.00;;;9.31;39.50
11041;BME280;5573;49.592;8.662;2023-04-04T11:23:20;100785.31;;;9.24;39.79
11041;BME280;5573;49.592;8.662;2023-04-04T11:25:49;100771.47;;;9.48;39.91
11041;BME280;5573;49.592;8.662;2023-04-04T11:28:25;100764.88;;;9.09;41.27
11041;BME280;5573;49.592;8.662;2023-04-04T11:31:26;100767.72;;;9.12;40.50
11041;BME280;5573;49.592;8.662;2023-04-04T11:34:01;100765.19;;;9.48;40.38
11041;BME280;5573;49.592;8.662;2023-04-04T11:36:51;100765.06;;;9.44;40.64
11041;BME280;5573;49.592;8.662;2023-04-04T11:39:28;100768.25;;;9.46;37.94
11041;BME280;5573;49.592;8.662;2023-04-04T11:42:00;100760.53;;;9.80;39.89
11041;BME280;5573;49.592;8.662;2023-04-04T11:44:30;100745.22;;;10.11;39.90
11041;BME280;5573;49.592;8.662;2023-04-04T11:47:09;100748.25;;;10.37;39.19
11041;BME280;5573;49.592;8.662;2023-04-04T11:49:38;100749.72;;;10.35;39.86
11041;BME280;5573;49.592;8.662;2023-04-04T11:52:08;100749.47;;;9.92;40.03
11041;BME280;5573;49.592;8.662;2023-04-04T11:54:36;100746.72;;;10.08;39.64
11041;BME280;5573;49.592;8.662;2023-04-04T11:57:04;100742.72;;;9.90;37.95
11041;BME280;5573;49.592;8.662;2023-04-04T11:59:33;100738.78;;;9.59;38.42
11041;BME280;5573;49.592;8.662;2023-04-04T12:02:07;100731.56;;;9.83;40.26
11041;BME280;5573;49.592;8.662;2023-04-04T12:04:35;100722.69;;;10.05;38.71
11041;BME280;5573;49.592;8.662;2023-04-04T12:07:08;100726.94;;;10.03;39.52
11041;BME280;5573;49.592;8.662;2023-04-04T12:09:35;100723.31;;;9.98;38.38
11041;BME280;5573;49.592;8.662;2023-04-04T12:12:04;100719.69;;;10.10;38.87
11041;BME280;5573;49.592;8.662;2023-04-04T12:14:33;100727.44;;;10.24;36.42
11041;BME280;5573;49.592;8.662;2023-04-04T12:17:01;100721.94;;;10.24;36.84
11041;BME280;5573;49.592;8.662;2023-04-04T12:19:35;100723.75;;;10.32;37.69
11041;BME280;5573;49.592;8.662;2023-04-04T12:22:03;100708.75;;;10.14;39.24
11041;BME280;5573;49.592;8.662;2023-04-04T12:24:31;100716.34;;;10.52;37.46
11041;BME280;5573;49.592;8.662;2023-04-04T12:26:59;100711.97;;;10.87;37.54
11041;BME280;5573;49.592;8.662;2023-04-04T12:29:29;100706.19;;;10.21;36.55
11041;BME280;5573;49.592;8.662;2023-04-04T12:32:03;100703.41;;;10.37;39.38
11041;BME280;5573;49.592;8.662;2023-04-04T12:34:34;100710.53;;;10.06;37.84
11041;BME280;5573;49.592;8.662;2023-04-04T12:37:09;100688.38;;;9.83;35.99
11041;BME280;5573;49.592;8.662;2023-04-04T12:39:39;100707.31;;;10.20;38.81
11041;BME280;5573;49.592;8.662;2023-04-04T12:42:19;100606.13;;;9.59;38.23
11041;BME280;5573;49.592;8.662;2023-04-04T12:44:49;100703.00;;;10.19;34.60
11041;BME280;5573;49.592;8.662;2023-04-04T12:47:17;100697.41;;;10.31;39.56
11041;BME280;5573;49.592;8.662;2023-04-04T12:49:47;100692.91;;;10.58;38.66
11041;BME280;5573;49.592;8.662;2023-04-04T12:52:17;100695.41;;;11.03;39.38
11041;BME280;5573;49.592;8.662;2023-04-04T12:54:46;100681.09;;;11.16;39.16
11041;BME280;5573;49.592;8.662;2023-04-04T12:57:32;100682.47;;;11.07;37.79
11041;BME280;5573;49.592;8.662;2023-04-04T13:00:01;100689.72;;;11.15;37.04
11041;BME280;5573;49.592;8.662;2023-04-04T13:02:34;100679.66;;;11.03;36.01
11041;BME280;5573;49.592;8.662;2023-04-04T13:05:04;100679.22;;;11.44;39.01
11041;BME280;5573;49.592;8.662;2023-04-04T13:07:35;100687.16;;;11.26;37.23
11041;BME280;5573;49.592;8.662;2023-04-04T13:10:09;100680.81;;;11.22;35.30
11041;BME280;5573;49.592;8.662;2023-04-04T13:12:55;100588.94;;;10.13;37.13
11041;BME280;5573;49.592;8.662;2023-04-04T13:15:49;100678.00;;;10.79;37.33
11041;BME280;5573;49.592;8.662;2023-04-04T13:18:18;100675.97;;;10.95;36.43
11041;BME280;5573;49.592;8.662;2023-04-04T13:20:50;100673.25;;;10.41;35.04
11041;BME280;5573;49.592;8.662;2023-04-04T13:23:19;100666.00;;;10.32;39.53
11041;BME280;5573;49.592;8.662;2023-04-04T13:25:47;100656.25;;;10.93;38.21
11041;BME280;5573;49.592;8.662;2023-04-04T13:28:15;100654.88;;;11.03;39.30